sensor_id;sensor_type;location;lat;lon;timestamp;pressure;altitude;pressure_sealevel;temperature;humidity
61478;BME280;47345;52.334;10.392;2023-07-16T00:02:17;100150.38;;;22.04;75.91
61478;BME280;47345;52.334;10.392;2023-07-16T00:04:48;100138.42;;;22.01;76.07
61478;BME280;47345;52.334;10.392;2023-07-16T00:07:19;100136.30;;;21.99;76.47
61478;BME280;47345;52.334;10.392;2023-07-16T00:09:49;100128.53;;;21.96;76.75
61478;BME280;47345;52.334;10.392;2023-07-16T00:12:20;100107.33;;;21.91;77.06
61478;BME280;47345;52.334;10.392;2023-07-16T00:14:51;100110.66;;;21.88;77.24
61478;BME280;47345;52.334;10.392;2023-07-16T00:17:22;100111.63;;;21.86;77.44
61478;BME280;47345;52.334;10.392;2023-07-16T00:19:52;100135.45;;;21.87;77.67
61478;BME280;47345;52.334;10.392;2023-07-16T00:22:23;100136.80;;;21.85;77.69
61478;BME280;47345;52.334;10.392;2023-07-16T00:24:54;100142.61;;;21.84;77.84
61478;BME280;47345;52.334;10.392;2023-07-16T00:27:25;100157.33;;;21.82;77.99
61478;BME280;47345;52.334;10.392;2023-07-16T00:29:56;100162.48;;;21.79;78.20
61478;BME280;47345;52.334;10.392;2023-07-16T00:32:26;100175.27;;;21.77;78.20
61478;BME280;47345;52.334;10.392;2023-07-16T00:34:58;100183.85;;;21.76;78.37
61478;BME280;47345;52.334;10.392;2023-07-16T00:37:28;100191.96;;;21.73;78.54
61478;BME280;47345;52.334;10.392;2023-07-16T00:39:59;100198.59;;;21.72;78.64
61478;BME280;47345;52.334;10.392;2023-07-16T00:42:29;100211.97;;;21.71;78.74
61478;BME280;47345;52.334;10.392;2023-07-16T00:45:00;100227.54;;;21.67;79.71
61478;BME280;47345;52.334;10.392;2023-07-16T00:47:31;100225.92;;;21.59;80.00
61478;BME280;47345;52.334;10.392;2023-07-16T00:50:03;100222.77;;;21.51;80.52
61478;BME280;47345;52.334;10.392;2023-07-16T00:52:34;100205.89;;;21.43;80.36
61478;BME280;47345;52.334;10.392;2023-07-16T00:55:07;100197.58;;;21.38;79.95
61478;BME280;47345;52.334;10.392;2023-07-16T00:57:39;100222.09;;;21.36;79.51
61478;BME280;47345;52.334;10.392;2023-07-16T01:00:12;100208.98;;;21.34;79.12
61478;BME280;47345;52.334;10.392;2023-07-16T01:02:43;100194.77;;;21.36;79.04
61478;BME280;47345;52.334;10.392;2023-07-16T01:05:14;100172.32;;;21.40;78.89
61478;BME280;47345;52.334;10.392;2023-07-16T01:07:59;100137.30;;;21.46;78.97
61478;BME280;47345;52.334;10.392;2023-07-16T01:10:33;100080.11;;;21.45;78.95
61478;BME280;47345;52.334;10.392;2023-07-16T01:13:04;100108.91;;;21.42;78.94
61478;BME280;47345;52.334;10.392;2023-07-16T01:15:35;100146.76;;;21.42;78.78
61478;BME280;47345;52.334;10.392;2023-07-16T01:18:07;100187.36;;;21.43;78.64
61478;BME280;47345;52.334;10.392;2023-07-16T01:20:38;100204.56;;;21.47;78.72
61478;BME280;47345;52.334;10.392;2023-07-16T01:23:30;100209.66;;;21.49;78.66
61478;BME280;47345;52.334;10.392;2023-07-16T01:26:11;100219.81;;;21.47;78.53
61478;BME280;47345;52.334;10.392;2023-07-16T01:31:58;100208.58;;;21.41;78.81
61478;BME280;47345;52.334;10.392;2023-07-16T01:34:32;100185.98;;;21.31;78.73
61478;BME280;47345;52.334;10.392;2023-07-16T01:37:04;100176.83;;;21.17;79.29
61478;BME280;47345;52.334;10.392;2023-07-16T01:39:36;100179.55;;;21.10;79.79
61478;BME280;47345;52.334;10.392;2023-07-16T01:42:07;100183.80;;;21.10;80.10
61478;BME280;47345;52.334;10.392;2023-07-16T01:44:38;100203.75;;;21.11;80.72
61478;BME280;47345;52.334;10.392;2023-07-16T01:47:14;100208.84;;;21.07;80.91
61478;BME280;47345;52.334;10.392;2023-07-16T01:49:45;100208.81;;;21.03;80.83
61478;BME280;47345;52.334;10.392;2023-07-16T01:52:16;100212.14;;;20.97;81.13
61478;BME280;47345;52.334;10.392;2023-07-16T01:54:47;100214.91;;;20.90;81.48
61478;BME280;47345;52.334;10.392;2023-07-16T01:57:18;100216.08;;;20.84;81.69
61478;BME280;47345;52.334;10.392;2023-07-16T01:59:49;100189.08;;;20.82;82.16
61478;BME280;47345;52.334;10.392;2023-07-16T02:02:20;100165.52;;;20.77;82.78
61478;BME280;47345;52.334;10.392;2023-07-16T02:04:51;100186.30;;;20.62;82.76
61478;BME280;47345;52.334;10.392;2023-07-16T02:07:22;100205.00;;;20.48;83.01
61478;BME280;47345;52.334;10.392;2023-07-16T02:09:53;100224.82;;;20.42;83.46
61478;BME280;47345;52.334;10.392;2023-07-16T02:12:24;100203.02;;;20.39;83.62
61478;BME280;47345;52.334;10.392;2023-07-16T02:14:55;100180.45;;;20.41;83.72
61478;BME280;47345;52.334;10.392;2023-07-16T02:17:26;100196.28;;;20.40;83.50
61478;BME280;47345;52.334;10.392;2023-07-16T02:19:57;100209.69;;;20.37;83.95
61478;BME280;47345;52.334;10.392;2023-07-16T02:22:28;100213.70;;;20.34;83.97
61478;BME280;47345;52.334;10.392;2023-07-16T02:24:59;100224.88;;;20.29;83.82
61478;BME280;47345;52.334;10.392;2023-07-16T02:27:30;100227.70;;;20.21;82.93
61478;BME280;47345;52.334;10.392;2023-07-16T02:30:00;100230.75;;;20.11;82.65
61478;BME280;47345;52.334;10.392;2023-07-16T02:32:31;100233.61;;;20.03;82.66
61478;BME280;47345;52.334;10.392;2023-07-16T02:35:03;100233.25;;;19.96;82.70
61478;BME280;47345;52.334;10.392;2023-07-16T02:37:34;100230.38;;;19.90;82.63
61478;BME280;47345;52.334;10.392;2023-07-16T02:40:06;100231.20;;;19.87;82.95
61478;BME280;47345;52.334;10.392;2023-07-16T02:42:37;100231.65;;;19.83;82.70
61478;BME280;47345;52.334;10.392;2023-07-16T02:45:09;100223.61;;;19.81;82.56
61478;BME280;47345;52.334;10.392;2023-07-16T02:47:40;100225.10;;;19.84;82.89
61478;BME280;47345;52.334;10.392;2023-07-16T02:50:12;100229.36;;;19.89;83.23
61478;BME280;47345;52.334;10.392;2023-07-16T02:52:43;100239.85;;;19.94;83.30
61478;BME280;47345;52.334;10.392;2023-07-16T02:55:14;100241.58;;;19.98;83.81
61478;BME280;47345;52.334;10.392;2023-07-16T02:57:45;100240.85;;;20.01;83.74
61478;BME280;47345;52.334;10.392;2023-07-16T03:00:16;100256.88;;;20.02;83.26
61478;BME280;47345;52.334;10.392;2023-07-16T03:02:47;100246.66;;;20.03;83.49
61478;BME280;47345;52.334;10.392;2023-07-16T03:05:19;100243.00;;;20.03;83.03
61478;BME280;47345;52.334;10.392;2023-07-16T03:07:50;100241.50;;;20.01;82.72
61478;BME280;47345;52.334;10.392;2023-07-16T03:10:22;100249.40;;;19.98;82.37
61478;BME280;47345;52.334;10.392;2023-07-16T03:12:55;100252.51;;;19.97;82.85
61478;BME280;47345;52.334;10.392;2023-07-16T03:15:26;100248.34;;;20.00;82.87
61478;BME280;47345;52.334;10.392;2023-07-16T03:17:57;100241.95;;;20.00;83.19
61478;BME280;47345;52.334;10.392;2023-07-16T03:20:28;100244.06;;;20.00;83.31
61478;BME280;47345;52.334;10.392;2023-07-16T03:23:00;100250.39;;;19.99;83.10
61478;BME280;47345;52.334;10.392;2023-07-16T03:25:31;100260.05;;;19.98;83.09
61478;BME280;47345;52.334;10.392;2023-07-16T03:28:03;100266.73;;;19.97;83.07
61478;BME280;47345;52.334;10.392;2023-07-16T03:30:33;100273.94;;;19.94;83.09
61478;BME280;47345;52.334;10.392;2023-07-16T03:33:05;100277.95;;;19.91;83.28
61478;BME280;47345;52.334;10.392;2023-07-16T03:35:36;100281.38;;;19.86;83.52
61478;BME280;47345;52.334;10.392;2023-07-16T03:38:07;100291.31;;;19.83;83.92
61478;BME280;47345;52.334;10.392;2023-07-16T03:40:38;100297.30;;;19.79;83.89
61478;BME280;47345;52.334;10.392;2023-07-16T03:43:10;100303.92;;;19.75;83.83
61478;BME280;47345;52.334;10.392;2023-07-16T03:45:41;100309.92;;;19.73;83.64
61478;BME280;47345;52.334;10.392;2023-07-16T03:48:12;100307.04;;;19.71;83.77
61478;BME280;47345;52.334;10.392;2023-07-16T03:50:43;100302.92;;;19.71;83.82
61478;BME280;47345;52.334;10.392;2023-07-16T03:53:13;100303.93;;;19.73;84.05
61478;BME280;47345;52.334;10.392;2023-07-16T03:55:44;100307.91;;;19.75;84.02
61478;BME280;47345;52.334;10.392;2023-07-16T03:58:15;100316.52;;;19.79;83.85
61478;BME280;47345;52.334;10.392;2023-07-16T04:00:46;100317.13;;;19.83;83.94
61478;BME280;47345;52.334;10.392;2023-07-16T04:03:17;100318.30;;;19.88;83.93
61478;BME280;47345;52.334;10.392;2023-07-16T04:05:48;100323.69;;;19.94;83.87
61478;BME280;47345;52.334;10.392;2023-07-16T04:08:19;100329.16;;;20.03;83.66
61478;BME280;47345;52.334;10.392;2023-07-16T04:10:50;100319.80;;;20.19;83.58
61478;BME280;47345;52.334;10.392;2023-07-16T04:13:24;100322.27;;;20.42;83.20
61478;BME280;47345;52.334;10.392;2023-07-16T04:15:55;100327.08;;;20.59;82.55
61478;BME280;47345;52.334;10.392;2023-07-16T04:18:27;100332.89;;;21.00;81.98
61478;BME280;47345;52.334;10.392;2023-07-16T04:20:58;100339.84;;;21.31;80.84
61478;BME280;47345;52.334;10.392;2023-07-16T04:23:29;100348.02;;;21.32;80.26
61478;BME280;47345;52.334;10.392;2023-07-16T04:26:00;100351.55;;;21.28;79.90
61478;BME280;47345;52.334;10.392;2023-07-16T04:28:30;100349.70;;;21.22;79.89
61478;BME280;47345;52.334;10.392;2023-07-16T04:31:01;100356.48;;;21.18;79.52
61478;BME280;47345;52.334;10.392;2023-07-16T04:33:32;100359.33;;;21.39;79.16
61478;BME280;47345;52.334;10.392;2023-07-16T04:36:03;100360.86;;;21.43;78.65
61478;BME280;47345;52.334;10.392;2023-07-16T04:38:34;100362.96;;;21.35;78.32
61478;BME280;47345;52.334;10.392;2023-07-16T04:41:05;100369.99;;;21.33;78.17
61478;BME280;47345;52.334;10.392;2023-07-16T04:43:36;100367.25;;;21.66;77.18
61478;BME280;47345;52.334;10.392;2023-07-16T04:46:06;100371.98;;;22.03;75.62
61478;BME280;47345;52.334;10.392;2023-07-16T04:48:37;100374.45;;;22.34;74.67
61478;BME280;47345;52.334;10.392;2023-07-16T04:51:08;100377.53;;;22.69;73.40
61478;BME280;47345;52.334;10.392;2023-07-16T04:53:38;100381.09;;;23.03;72.54
61478;BME280;47345;52.334;10.392;2023-07-16T04:56:14;100389.41;;;23.35;70.94
61478;BME280;47345;52.334;10.392;2023-07-16T04:58:46;100393.04;;;23.61;69.82
61478;BME280;47345;52.334;10.392;2023-07-16T05:01:16;100398.08;;;23.70;69.25
61478;BME280;47345;52.334;10.392;2023-07-16T05:03:47;100404.41;;;23.47;69.18
61478;BME280;47345;52.334;10.392;2023-07-16T05:06:18;100407.09;;;23.24;69.33
61478;BME280;47345;52.334;10.392;2023-07-16T05:08:49;100404.57;;;23.29;69.19
61478;BME280;47345;52.334;10.392;2023-07-16T05:11:19;100404.19;;;23.47;68.93
61478;BME280;47345;52.334;10.392;2023-07-16T05:13:50;100405.25;;;23.62;68.56
61478;BME280;47345;52.334;10.392;2023-07-16T05:16:21;100403.54;;;23.75;67.95
61478;BME280;47345;52.334;10.392;2023-07-16T05:18:52;100405.67;;;23.70;68.29
61478;BME280;47345;52.334;10.392;2023-07-16T05:21:22;100410.44;;;23.56;68.40
61478;BME280;47345;52.334;10.392;2023-07-16T05:23:53;100414.95;;;23.37;68.64
61478;BME280;47345;52.334;10.392;2023-07-16T05:26:24;100417.33;;;23.23;68.91
61478;BME280;47345;52.334;10.392;2023-07-16T05:28:55;100419.90;;;23.05;68.42
61478;BME280;47345;52.334;10.392;2023-07-16T05:31:26;100422.10;;;22.86;68.71
61478;BME280;47345;52.334;10.392;2023-07-16T05:33:57;100426.45;;;22.67;68.72
61478;BME280;47345;52.334;10.392;2023-07-16T05:36:28;100431.44;;;22.55;69.36
61478;BME280;47345;52.334;10.392;2023-07-16T05:38:59;100435.91;;;22.48;69.66
61478;BME280;47345;52.334;10.392;2023-07-16T05:41:30;100439.95;;;22.44;69.39
61478;BME280;47345;52.334;10.392;2023-07-16T05:44:00;100439.77;;;22.37;69.50
61478;BME280;47345;52.334;10.392;2023-07-16T05:46:32;100446.06;;;22.34;69.25
61478;BME280;47345;52.334;10.392;2023-07-16T05:49:03;100450.13;;;22.28;69.28
61478;BME280;47345;52.334;10.392;2023-07-16T05:51:35;100455.89;;;22.26;69.56
61478;BME280;47345;52.334;10.392;2023-07-16T05:54:05;100458.52;;;22.25;69.46
61478;BME280;47345;52.334;10.392;2023-07-16T05:56:37;100463.96;;;22.26;69.29
61478;BME280;47345;52.334;10.392;2023-07-16T05:59:08;100465.77;;;22.25;69.54
61478;BME280;47345;52.334;10.392;2023-07-16T06:01:39;100464.41;;;22.26;69.41
61478;BME280;47345;52.334;10.392;2023-07-16T06:04:09;100467.25;;;22.33;69.66
61478;BME280;47345;52.334;10.392;2023-07-16T06:06:40;100465.73;;;22.39;69.20
61478;BME280;47345;52.334;10.392;2023-07-16T06:09:11;100465.87;;;22.42;69.16
61478;BME280;47345;52.334;10.392;2023-07-16T06:11:42;100460.27;;;22.48;68.97
61478;BME280;47345;52.334;10.392;2023-07-16T06:14:13;100462.59;;;22.55;68.93
61478;BME280;47345;52.334;10.392;2023-07-16T06:16:44;100463.99;;;22.60;68.32
61478;BME280;47345;52.334;10.392;2023-07-16T06:19:15;100466.79;;;22.70;68.24
61478;BME280;47345;52.334;10.392;2023-07-16T06:21:46;100469.84;;;22.76;67.86
61478;BME280;47345;52.334;10.392;2023-07-16T06:24:17;100470.86;;;22.80;67.28
61478;BME280;47345;52.334;10.392;2023-07-16T06:26:48;100472.16;;;22.81;66.25
61478;BME280;47345;52.334;10.392;2023-07-16T06:29:19;100474.91;;;22.85;66.50
61478;BME280;47345;52.334;10.392;2023-07-16T06:31:57;100476.00;;;22.88;65.95
61478;BME280;47345;52.334;10.392;2023-07-16T06:34:28;100478.59;;;22.90;65.50
61478;BME280;47345;52.334;10.392;2023-07-16T06:36:59;100483.30;;;22.93;65.65
61478;BME280;47345;52.334;10.392;2023-07-16T06:39:31;100482.95;;;22.90;64.51
61478;BME280;47345;52.334;10.392;2023-07-16T06:42:03;100487.93;;;22.87;64.34
61478;BME280;47345;52.334;10.392;2023-07-16T06:44:34;100486.03;;;22.79;64.46
61478;BME280;47345;52.334;10.392;2023-07-16T06:47:06;100494.77;;;22.84;64.70
61478;BME280;47345;52.334;10.392;2023-07-16T06:49:36;100496.99;;;22.95;65.15
61478;BME280;47345;52.334;10.392;2023-07-16T06:52:08;100501.80;;;23.13;65.78
61478;BME280;47345;52.334;10.392;2023-07-16T06:54:38;100499.88;;;23.31;65.28
61478;BME280;47345;52.334;10.392;2023-07-16T06:57:11;100495.88;;;23.46;64.53
61478;BME280;47345;52.334;10.392;2023-07-16T06:59:42;100500.45;;;23.50;63.20
61478;BME280;47345;52.334;10.392;2023-07-16T07:02:13;100504.11;;;23.52;62.39
61478;BME280;47345;52.334;10.392;2023-07-16T07:04:43;100504.80;;;23.46;62.00
61478;BME280;47345;52.334;10.392;2023-07-16T07:07:15;100505.45;;;23.43;61.68
61478;BME280;47345;52.334;10.392;2023-07-16T07:09:48;100505.15;;;23.49;61.77
61478;BME280;47345;52.334;10.392;2023-07-16T07:12:19;100505.98;;;23.58;61.39
61478;BME280;47345;52.334;10.392;2023-07-16T07:14:50;100506.14;;;23.66;60.49
61478;BME280;47345;52.334;10.392;2023-07-16T07:17:20;100507.54;;;23.78;60.73
61478;BME280;47345;52.334;10.392;2023-07-16T07:19:51;100509.98;;;23.98;60.48
61478;BME280;47345;52.334;10.392;2023-07-16T07:22:22;100507.16;;;24.30;58.24
61478;BME280;47345;52.334;10.392;2023-07-16T07:24:53;100506.85;;;24.57;57.90
61478;BME280;47345;52.334;10.392;2023-07-16T07:27:24;100513.50;;;24.67;55.30
61478;BME280;47345;52.334;10.392;2023-07-16T07:29:55;100514.94;;;24.81;55.02
61478;BME280;47345;52.334;10.392;2023-07-16T07:32:26;100512.88;;;25.06;55.41
61478;BME280;47345;52.334;10.392;2023-07-16T07:34:57;100511.48;;;25.28;53.69
61478;BME280;47345;52.334;10.392;2023-07-16T07:37:32;100503.61;;;25.48;54.15
61478;BME280;47345;52.334;10.392;2023-07-16T07:40:03;100509.56;;;25.68;51.93
61478;BME280;47345;52.334;10.392;2023-07-16T07:42:34;100510.19;;;25.82;49.15
61478;BME280;47345;52.334;10.392;2023-07-16T07:45:06;100508.13;;;25.84;47.48
61478;BME280;47345;52.334;10.392;2023-07-16T07:47:37;100507.23;;;25.72;46.78
61478;BME280;47345;52.334;10.392;2023-07-16T07:50:09;100503.41;;;25.59;47.24
61478;BME280;47345;52.334;10.392;2023-07-16T07:52:41;100508.68;;;25.54;47.04
61478;BME280;47345;52.334;10.392;2023-07-16T07:55:12;100507.02;;;25.46;46.83
61478;BME280;47345;52.334;10.392;2023-07-16T07:57:43;100509.70;;;25.47;47.44
61478;BME280;47345;52.334;10.392;2023-07-16T08:00:15;100511.22;;;25.48;47.23
61478;BME280;47345;52.334;10.392;2023-07-16T08:02:46;100512.39;;;25.46;46.79
61478;BME280;47345;52.334;10.392;2023-07-16T08:05:17;100515.11;;;25.41;46.91
61478;BME280;47345;52.334;10.392;2023-07-16T08:07:48;100518.63;;;25.37;48.20
61478;BME280;47345;52.334;10.392;2023-07-16T08:10:19;100522.80;;;25.27;48.57
61478;BME280;47345;52.334;10.392;2023-07-16T08:12:50;100525.17;;;25.21;46.70
61478;BME280;47345;52.334;10.392;2023-07-16T08:15:21;100529.71;;;25.04;46.21
61478;BME280;47345;52.334;10.392;2023-07-16T08:17:51;100527.08;;;24.84;46.48
61478;BME280;47345;52.334;10.392;2023-07-16T08:20:23;100531.27;;;24.61;46.86
61478;BME280;47345;52.334;10.392;2023-07-16T08:22:54;100532.20;;;24.34;47.64
61478;BME280;47345;52.334;10.392;2023-07-16T08:25:25;100530.56;;;24.25;48.99
61478;BME280;47345;52.334;10.392;2023-07-16T08:27:56;100528.93;;;24.19;47.88
61478;BME280;47345;52.334;10.392;2023-07-16T08:30:27;100533.10;;;24.24;46.78
61478;BME280;47345;52.334;10.392;2023-07-16T08:32:58;100532.99;;;24.36;47.23
61478;BME280;47345;52.334;10.392;2023-07-16T08:35:28;100539.33;;;24.54;46.43
61478;BME280;47345;52.334;10.392;2023-07-16T08:37:59;100540.27;;;24.75;45.17
61478;BME280;47345;52.334;10.392;2023-07-16T08:40:30;100543.55;;;24.94;44.99
61478;BME280;47345;52.334;10.392;2023-07-16T08:43:01;100547.58;;;25.09;43.52
61478;BME280;47345;52.334;10.392;2023-07-16T08:45:38;100547.88;;;25.11;42.86
61478;BME280;47345;52.334;10.392;2023-07-16T08:48:10;100546.96;;;25.12;42.51
61478;BME280;47345;52.334;10.392;2023-07-16T08:50:43;100553.92;;;25.13;42.61
61478;BME280;47345;52.334;10.392;2023-07-16T08:53:18;100553.52;;;25.16;42.26
61478;BME280;47345;52.334;10.392;2023-07-16T08:55:50;100554.39;;;25.21;42.36
61478;BME280;47345;52.334;10.392;2023-07-16T08:58:24;100550.91;;;25.29;42.13
61478;BME280;47345;52.334;10.392;2023-07-16T09:00:55;100552.80;;;25.32;41.65
61478;BME280;47345;52.334;10.392;2023-07-16T09:03:26;100549.17;;;25.41;42.25
61478;BME280;47345;52.334;10.392;2023-07-16T09:05:57;100553.45;;;25.51;41.50
61478;BME280;47345;52.334;10.392;2023-07-16T09:08:28;100551.55;;;25.59;41.55
61478;BME280;47345;52.334;10.392;2023-07-16T09:11:00;100550.55;;;25.55;41.24
61478;BME280;47345;52.334;10.392;2023-07-16T09:13:31;100551.58;;;25.65;41.40
61478;BME280;47345;52.334;10.392;2023-07-16T09:16:02;100546.48;;;25.68;41.21
61478;BME280;47345;52.334;10.392;2023-07-16T09:18:33;100549.10;;;25.71;42.44
61478;BME280;47345;52.334;10.392;2023-07-16T09:21:05;100552.86;;;25.58;41.88
61478;BME280;47345;52.334;10.392;2023-07-16T09:23:36;100554.09;;;25.33;41.62
61478;BME280;47345;52.334;10.392;2023-07-16T09:26:07;100548.14;;;25.33;42.20
61478;BME280;47345;52.334;10.392;2023-07-16T09:28:38;100547.25;;;25.36;42.44
61478;BME280;47345;52.334;10.392;2023-07-16T09:31:09;100547.79;;;25.51;42.17
61478;BME280;47345;52.334;10.392;2023-07-16T09:33:41;100552.30;;;25.65;41.80
61478;BME280;47345;52.334;10.392;2023-07-16T09:36:12;100543.59;;;25.79;42.03
61478;BME280;47345;52.334;10.392;2023-07-16T09:38:44;100554.33;;;25.90;40.42
61478;BME280;47345;52.334;10.392;2023-07-16T09:41:16;100543.84;;;26.04;41.03
61478;BME280;47345;52.334;10.392;2023-07-16T09:43:48;100554.54;;;26.24;41.18
61478;BME280;47345;52.334;10.392;2023-07-16T09:46:20;100556.69;;;26.41;40.19
61478;BME280;47345;52.334;10.392;2023-07-16T09:48:51;100553.13;;;26.64;40.59
61478;BME280;47345;52.334;10.392;2023-07-16T09:51:22;100557.95;;;26.68;39.76
61478;BME280;47345;52.334;10.392;2023-07-16T09:53:55;100563.56;;;26.64;39.58
61478;BME280;47345;52.334;10.392;2023-07-16T09:56:28;100566.71;;;26.46;39.11
61478;BME280;47345;52.334;10.392;2023-07-16T09:59:02;100566.05;;;26.49;38.80
61478;BME280;47345;52.334;10.392;2023-07-16T10:01:37;100569.64;;;26.57;38.59
61478;BME280;47345;52.334;10.392;2023-07-16T10:04:15;100565.29;;;26.67;38.33
61478;BME280;47345;52.334;10.392;2023-07-16T10:06:57;100569.18;;;26.77;37.57
61478;BME280;47345;52.334;10.392;2023-07-16T10:09:38;100573.95;;;26.75;38.01
61478;BME280;47345;52.334;10.392;2023-07-16T10:12:19;100580.47;;;26.72;38.13
61478;BME280;47345;52.334;10.392;2023-07-16T10:14:52;100577.67;;;26.78;38.00
61478;BME280;47345;52.334;10.392;2023-07-16T10:17:24;100573.64;;;26.93;38.44
61478;BME280;47345;52.334;10.392;2023-07-16T10:19:59;100576.95;;;27.07;37.96
61478;BME280;47345;52.334;10.392;2023-07-16T10:22:40;100580.88;;;27.18;37.01
61478;BME280;47345;52.334;10.392;2023-07-16T10:25:23;100579.01;;;27.13;37.23
61478;BME280;47345;52.334;10.392;2023-07-16T10:27:55;100573.88;;;27.11;36.93
61478;BME280;47345;52.334;10.392;2023-07-16T10:30:26;100572.38;;;27.15;36.05
61478;BME280;47345;52.334;10.392;2023-07-16T10:32:57;100572.66;;;27.29;37.16
61478;BME280;47345;52.334;10.392;2023-07-16T10:35:30;100573.14;;;27.37;35.59
61478;BME280;47345;52.334;10.392;2023-07-16T10:38:01;100582.39;;;27.34;35.56
61478;BME280;47345;52.334;10.392;2023-07-16T10:40:32;100582.30;;;27.47;36.04
61478;BME280;47345;52.334;10.392;2023-07-16T10:43:03;100585.50;;;27.51;35.51
61478;BME280;47345;52.334;10.392;2023-07-16T10:45:35;100580.39;;;27.57;35.64
61478;BME280;47345;52.334;10.392;2023-07-16T10:48:06;100580.47;;;27.76;35.52
61478;BME280;47345;52.334;10.392;2023-07-16T10:50:37;100579.14;;;27.88;35.19
61478;BME280;47345;52.334;10.392;2023-07-16T10:53:08;100577.58;;;28.01;35.42
61478;BME280;47345;52.334;10.392;2023-07-16T10:55:40;100575.15;;;28.18;35.14
61478;BME280;47345;52.334;10.392;2023-07-16T10:58:11;100573.05;;;28.34;33.25
61478;BME280;47345;52.334;10.392;2023-07-16T11:00:42;100574.42;;;28.54;33.90
61478;BME280;47345;52.334;10.392;2023-07-16T11:03:17;100581.83;;;28.74;32.69
61478;BME280;47345;52.334;10.392;2023-07-16T11:05:48;100582.23;;;28.80;32.31
61478;BME280;47345;52.334;10.392;2023-07-16T11:08:25;100584.22;;;28.79;32.03
61478;BME280;47345;52.334;10.392;2023-07-16T11:10:57;100582.50;;;28.78;31.49
61478;BME280;47345;52.334;10.392;2023-07-16T11:13:29;100579.22;;;28.65;31.38
61478;BME280;47345;52.334;10.392;2023-07-16T11:16:09;100589.89;;;28.39;31.75
61478;BME280;47345;52.334;10.392;2023-07-16T11:18:41;100588.27;;;28.14;33.17
61478;BME280;47345;52.334;10.392;2023-07-16T11:21:13;100586.25;;;28.01;33.44
61478;BME280;47345;52.334;10.392;2023-07-16T11:23:44;100590.58;;;27.99;33.00
61478;BME280;47345;52.334;10.392;2023-07-16T11:26:17;100586.84;;;28.00;32.81
61478;BME280;47345;52.334;10.392;2023-07-16T11:28:51;100583.95;;;28.21;33.14
61478;BME280;47345;52.334;10.392;2023-07-16T11:31:22;100584.47;;;28.45;31.86
61478;BME280;47345;52.334;10.392;2023-07-16T11:33:53;100584.11;;;28.68;32.48
61478;BME280;47345;52.334;10.392;2023-07-16T11:36:31;100591.20;;;28.94;31.25
61478;BME280;47345;52.334;10.392;2023-07-16T11:39:03;100582.83;;;29.03;30.65
61478;BME280;47345;52.334;10.392;2023-07-16T11:41:34;100582.36;;;29.00;31.23
61478;BME280;47345;52.334;10.392;2023-07-16T11:44:06;100586.16;;;28.80;31.57
61478;BME280;47345;52.334;10.392;2023-07-16T11:46:38;100588.20;;;28.66;31.54
61478;BME280;47345;52.334;10.392;2023-07-16T11:49:09;100590.98;;;28.50;31.53
61478;BME280;47345;52.334;10.392;2023-07-16T11:51:40;100587.56;;;28.53;32.59
61478;BME280;47345;52.334;10.392;2023-07-16T11:54:12;100585.23;;;28.72;32.09
61478;BME280;47345;52.334;10.392;2023-07-16T11:56:43;100586.03;;;28.92;32.25
61478;BME280;47345;52.334;10.392;2023-07-16T11:59:17;100585.05;;;29.02;32.34
61478;BME280;47345;52.334;10.392;2023-07-16T12:01:50;100591.55;;;28.96;31.13
61478;BME280;47345;52.334;10.392;2023-07-16T12:04:22;100594.01;;;29.05;30.26
61478;BME280;47345;52.334;10.392;2023-07-16T12:06:52;100593.09;;;29.22;30.07
61478;BME280;47345;52.334;10.392;2023-07-16T12:09:23;100591.02;;;29.26;29.30
61478;BME280;47345;52.334;10.392;2023-07-16T12:11:54;100593.00;;;29.10;30.11
61478;BME280;47345;52.334;10.392;2023-07-16T12:14:25;100599.16;;;28.99;29.96
61478;BME280;47345;52.334;10.392;2023-07-16T12:16:56;100597.02;;;28.94;31.02
61478;BME280;47345;52.334;10.392;2023-07-16T12:19:27;100594.46;;;29.05;30.93
61478;BME280;47345;52.334;10.392;2023-07-16T12:21:58;100597.13;;;28.99;30.94
61478;BME280;47345;52.334;10.392;2023-07-16T12:24:30;100601.46;;;28.70;31.08
61478;BME280;47345;52.334;10.392;2023-07-16T12:27:01;100603.02;;;28.45;31.23
61478;BME280;47345;52.334;10.392;2023-07-16T12:29:32;100598.16;;;28.51;31.29
61478;BME280;47345;52.334;10.392;2023-07-16T12:32:04;100588.54;;;28.68;31.57
61478;BME280;47345;52.334;10.392;2023-07-16T12:34:36;100593.42;;;28.78;30.95
61478;BME280;47345;52.334;10.392;2023-07-16T12:37:07;100602.77;;;28.91;30.38
61478;BME280;47345;52.334;10.392;2023-07-16T12:39:39;100608.95;;;29.01;29.86
61478;BME280;47345;52.334;10.392;2023-07-16T12:42:10;100605.56;;;28.97;30.01
61478;BME280;47345;52.334;10.392;2023-07-16T12:44:40;100609.14;;;28.96;30.49
61478;BME280;47345;52.334;10.392;2023-07-16T12:47:11;100610.91;;;29.01;30.03
61478;BME280;47345;52.334;10.392;2023-07-16T12:49:42;100605.58;;;29.01;30.21
61478;BME280;47345;52.334;10.392;2023-07-16T12:52:12;100609.78;;;29.17;29.95
61478;BME280;47345;52.334;10.392;2023-07-16T12:54:43;100612.95;;;29.39;29.83
61478;BME280;47345;52.334;10.392;2023-07-16T12:57:15;100612.60;;;29.59;29.06
61478;BME280;47345;52.334;10.392;2023-07-16T12:59:46;100612.84;;;29.72;29.40
61478;BME280;47345;52.334;10.392;2023-07-16T13:02:17;100612.57;;;29.87;29.17
61478;BME280;47345;52.334;10.392;2023-07-16T13:04:48;100617.42;;;29.92;28.63
61478;BME280;47345;52.334;10.392;2023-07-16T13:07:18;100620.96;;;29.78;29.11